sensor_id;sensor_type;location;lat;lon;timestamp;temperature;humidity
24087;DHT22;22893;50.572;7.234;2022-07-24T10:56:22;24.20;78.30
24087;DHT22;22893;50.572;7.234;2022-07-24T10:59:07;24.20;78.40
24087;DHT22;22893;50.572;7.234;2022-07-24T11:06:59;24.30;78.60
24087;DHT22;22893;50.572;7.234;2022-07-24T11:09:27;24.30;78.60
24087;DHT22;22893;50.572;7.234;2022-07-24T11:14:46;24.40;78.30
24087;DHT22;22893;50.572;7.234;2022-07-24T11:16:55;24.40;78.40
24087;DHT22;22893;50.572;7.234;2022-07-24T11:19:25;24.40;78.00
24087;DHT22;22893;50.572;7.234;2022-07-24T11:22:01;24.40;77.80
24087;DHT22;22893;50.572;7.234;2022-07-24T11:24:26;24.40;77.60
24087;DHT22;22893;50.572;7.234;2022-07-24T11:26:57;24.40;77.40
24087;DHT22;22893;50.572;7.234;2022-07-24T11:29:36;24.40;77.30
24087;DHT22;22893;50.572;7.234;2022-07-24T11:32:11;24.40;77.30
24087;DHT22;22893;50.572;7.234;2022-07-24T11:34:45;24.50;77.10
24087;DHT22;22893;50.572;7.234;2022-07-24T11:37:13;24.50;77.00
24087;DHT22;22893;50.572;7.234;2022-07-24T11:39:42;24.50;76.70
24087;DHT22;22893;50.572;7.234;2022-07-24T11:42:14;24.50;76.60
24087;DHT22;22893;50.572;7.234;2022-07-24T11:44:44;24.50;76.70
24087;DHT22;22893;50.572;7.234;2022-07-24T11:47:18;24.50;76.80
24087;DHT22;22893;50.572;7.234;2022-07-24T11:49:48;24.50;76.90
24087;DHT22;22893;50.572;7.234;2022-07-24T11:52:30;24.60;76.80
24087;DHT22;22893;50.572;7.234;2022-07-24T11:55:02;24.60;76.70
24087;DHT22;22893;50.572;7.234;2022-07-24T11:57:32;24.60;76.40
24087;DHT22;22893;50.572;7.234;2022-07-24T12:00:00;24.60;76.20
24087;DHT22;22893;50.572;7.234;2022-07-24T12:02:27;24.60;76.20
24087;DHT22;22893;50.572;7.234;2022-07-24T12:04:55;24.60;76.20
24087;DHT22;22893;50.572;7.234;2022-07-24T12:07:24;24.60;76.40
24087;DHT22;22893;50.572;7.234;2022-07-24T12:10:01;24.60;76.40
24087;DHT22;22893;50.572;7.234;2022-07-24T12:12:38;24.60;76.00
24087;DHT22;22893;50.572;7.234;2022-07-24T12:15:08;24.60;75.70
24087;DHT22;22893;50.572;7.234;2022-07-24T12:17:58;24.70;75.70
24087;DHT22;22893;50.572;7.234;2022-07-24T12:22:58;24.70;75.20
24087;DHT22;22893;50.572;7.234;2022-07-24T12:25:26;24.70;74.90
24087;DHT22;22893;50.572;7.234;2022-07-24T12:36:04;24.80;75.00
24087;DHT22;22893;50.572;7.234;2022-07-24T12:38:50;24.70;74.70
24087;DHT22;22893;50.572;7.234;2022-07-24T12:41:20;24.80;74.50
24087;DHT22;22893;50.572;7.234;2022-07-24T12:44:02;24.80;74.40
24087;DHT22;22893;50.572;7.234;2022-07-24T12:46:33;24.80;74.30
24087;DHT22;22893;50.572;7.234;2022-07-24T12:49:08;24.80;74.40
24087;DHT22;22893;50.572;7.234;2022-07-24T12:51:51;24.80;74.10
24087;DHT22;22893;50.572;7.234;2022-07-24T12:54:35;24.80;74.20
24087;DHT22;22893;50.572;7.234;2022-07-24T12:57:13;24.80;74.10
24087;DHT22;22893;50.572;7.234;2022-07-24T12:59:43;24.90;74.00
24087;DHT22;22893;50.572;7.234;2022-07-24T13:02:17;24.90;74.10
24087;DHT22;22893;50.572;7.234;2022-07-24T13:04:49;24.90;74.40
24087;DHT22;22893;50.572;7.234;2022-07-24T13:07:20;24.90;74.30
24087;DHT22;22893;50.572;7.234;2022-07-24T13:09:49;24.90;74.20
24087;DHT22;22893;50.572;7.234;2022-07-24T13:12:18;24.90;74.10
24087;DHT22;22893;50.572;7.234;2022-07-24T13:14:46;24.90;74.10
24087;DHT22;22893;50.572;7.234;2022-07-24T13:17:16;25.00;74.00
24087;DHT22;22893;50.572;7.234;2022-07-24T13:19:45;24.90;73.70
24087;DHT22;22893;50.572;7.234;2022-07-24T13:22:14;25.00;73.50
24087;DHT22;22893;50.572;7.234;2022-07-24T13:24:42;25.00;72.70
24087;DHT22;22893;50.572;7.234;2022-07-24T13:27:11;25.00;72.00
24087;DHT22;22893;50.572;7.234;2022-07-24T13:29:43;25.00;72.00
24087;DHT22;22893;50.572;7.234;2022-07-24T13:32:11;25.10;72.20
24087;DHT22;22893;50.572;7.234;2022-07-24T13:34:39;25.10;72.10
24087;DHT22;22893;50.572;7.234;2022-07-24T13:37:06;25.10;72.40
24087;DHT22;22893;50.572;7.234;2022-07-24T13:39:34;25.10;72.70
24087;DHT22;22893;50.572;7.234;2022-07-24T13:42:03;25.10;72.70
24087;DHT22;22893;50.572;7.234;2022-07-24T13:44:31;25.10;72.40
24087;DHT22;22893;50.572;7.234;2022-07-24T13:46:59;25.10;72.40
24087;DHT22;22893;50.572;7.234;2022-07-24T13:49:26;25.10;72.60
24087;DHT22;22893;50.572;7.234;2022-07-24T13:51:54;25.10;72.50
24087;DHT22;22893;50.572;7.234;2022-07-24T13:54:22;25.10;72.40
24087;DHT22;22893;50.572;7.234;2022-07-24T13:56:49;25.20;72.10
24087;DHT22;22893;50.572;7.234;2022-07-24T13:59:17;25.20;71.80
24087;DHT22;22893;50.572;7.234;2022-07-24T14:01:45;25.20;71.70
24087;DHT22;22893;50.572;7.234;2022-07-24T14:04:12;25.20;71.80
24087;DHT22;22893;50.572;7.234;2022-07-24T14:06:40;25.30;71.90
24087;DHT22;22893;50.572;7.234;2022-07-24T14:09:08;25.20;71.60
24087;DHT22;22893;50.572;7.234;2022-07-24T14:11:35;25.30;71.60
24087;DHT22;22893;50.572;7.234;2022-07-24T14:14:03;25.30;71.50
24087;DHT22;22893;50.572;7.234;2022-07-24T14:16:30;25.30;71.30
24087;DHT22;22893;50.572;7.234;2022-07-24T14:18:59;25.30;71.00
24087;DHT22;22893;50.572;7.234;2022-07-24T14:21:26;25.30;71.20
24087;DHT22;22893;50.572;7.234;2022-07-24T14:52:58;25.50;70.10
24087;DHT22;22893;50.572;7.234;2022-07-24T14:55:25;25.50;69.90
24087;DHT22;22893;50.572;7.234;2022-07-24T14:57:53;25.50;69.70
24087;DHT22;22893;50.572;7.234;2022-07-24T15:00:20;25.50;69.20
24087;DHT22;22893;50.572;7.234;2022-07-24T15:02:48;25.50;69.70
24087;DHT22;22893;50.572;7.234;2022-07-24T15:05:16;25.50;69.80
24087;DHT22;22893;50.572;7.234;2022-07-24T15:07:45;25.50;69.90
24087;DHT22;22893;50.572;7.234;2022-07-24T15:10:13;25.50;69.70
24087;DHT22;22893;50.572;7.234;2022-07-24T15:12:41;25.50;69.30
24087;DHT22;22893;50.572;7.234;2022-07-24T15:15:09;25.60;69.10
24087;DHT22;22893;50.572;7.234;2022-07-24T15:17:37;25.60;69.20
24087;DHT22;22893;50.572;7.234;2022-07-24T15:20:05;25.60;69.20
24087;DHT22;22893;50.572;7.234;2022-07-24T15:22:33;25.60;69.40
24087;DHT22;22893;50.572;7.234;2022-07-24T15:25:01;25.60;69.30
24087;DHT22;22893;50.572;7.234;2022-07-24T15:27:29;25.60;69.30
24087;DHT22;22893;50.572;7.234;2022-07-24T15:29:56;25.70;69.10
24087;DHT22;22893;50.572;7.234;2022-07-24T15:32:24;25.70;69.10
24087;DHT22;22893;50.572;7.234;2022-07-24T15:34:51;25.70;69.00
24087;DHT22;22893;50.572;7.234;2022-07-24T15:37:19;25.70;68.90
24087;DHT22;22893;50.572;7.234;2022-07-24T15:39:46;25.70;68.80
24087;DHT22;22893;50.572;7.234;2022-07-24T15:42:14;25.70;69.00
24087;DHT22;22893;50.572;7.234;2022-07-24T15:44:42;25.70;68.90
24087;DHT22;22893;50.572;7.234;2022-07-24T15:47:10;25.80;68.60
24087;DHT22;22893;50.572;7.234;2022-07-24T15:49:38;25.80;68.50
24087;DHT22;22893;50.572;7.234;2022-07-24T15:52:05;25.80;68.50
24087;DHT22;22893;50.572;7.234;2022-07-24T15:54:33;25.80;68.30
24087;DHT22;22893;50.572;7.234;2022-07-24T15:57:00;25.80;68.50
24087;DHT22;22893;50.572;7.234;2022-07-24T15:59:28;25.80;68.40
24087;DHT22;22893;50.572;7.234;2022-07-24T16:01:55;25.80;68.20
24087;DHT22;22893;50.572;7.234;2022-07-24T16:04:23;25.90;68.30
24087;DHT22;22893;50.572;7.234;2022-07-24T16:06:51;25.90;68.10
24087;DHT22;22893;50.572;7.234;2022-07-24T16:09:18;25.90;67.80
24087;DHT22;22893;50.572;7.234;2022-07-24T16:11:46;25.90;67.50
24087;DHT22;22893;50.572;7.234;2022-07-24T16:14:14;25.90;67.60
24087;DHT22;22893;50.572;7.234;2022-07-24T16:16:41;25.90;67.40
24087;DHT22;22893;50.572;7.234;2022-07-24T16:19:09;25.90;67.30
24087;DHT22;22893;50.572;7.234;2022-07-24T16:21:40;25.90;67.40
24087;DHT22;22893;50.572;7.234;2022-07-24T16:24:08;26.00;67.40
24087;DHT22;22893;50.572;7.234;2022-07-24T16:26:35;26.00;67.50
24087;DHT22;22893;50.572;7.234;2022-07-24T16:29:03;26.00;67.50
24087;DHT22;22893;50.572;7.234;2022-07-24T16:31:30;26.00;67.30
24087;DHT22;22893;50.572;7.234;2022-07-24T16:33:58;26.10;67.10
24087;DHT22;22893;50.572;7.234;2022-07-24T16:36:28;26.00;67.00
24087;DHT22;22893;50.572;7.234;2022-07-24T16:38:55;26.00;67.00
24087;DHT22;22893;50.572;7.234;2022-07-24T16:41:23;26.00;66.70
24087;DHT22;22893;50.572;7.234;2022-07-24T16:43:51;26.10;66.70
24087;DHT22;22893;50.572;7.234;2022-07-24T16:46:18;26.10;66.70
24087;DHT22;22893;50.572;7.234;2022-07-24T16:48:46;26.10;66.70
24087;DHT22;22893;50.572;7.234;2022-07-24T16:51:14;26.10;66.60
24087;DHT22;22893;50.572;7.234;2022-07-24T16:53:42;26.10;66.40
24087;DHT22;22893;50.572;7.234;2022-07-24T16:56:10;26.10;66.50
24087;DHT22;22893;50.572;7.234;2022-07-24T16:58:38;26.20;66.40
24087;DHT22;22893;50.572;7.234;2022-07-24T17:01:06;26.20;66.70
24087;DHT22;22893;50.572;7.234;2022-07-24T17:03:34;26.20;66.50
24087;DHT22;22893;50.572;7.234;2022-07-24T17:06:03;26.20;66.70
24087;DHT22;22893;50.572;7.234;2022-07-24T17:08:31;26.20;66.60
24087;DHT22;22893;50.572;7.234;2022-07-24T17:10:59;26.30;66.60
24087;DHT22;22893;50.572;7.234;2022-07-24T17:13:29;26.30;66.40
24087;DHT22;22893;50.572;7.234;2022-07-24T17:15:57;26.30;66.40
24087;DHT22;22893;50.572;7.234;2022-07-24T17:18:24;26.30;66.60
24087;DHT22;22893;50.572;7.234;2022-07-24T17:20:53;26.30;66.20
24087;DHT22;22893;50.572;7.234;2022-07-24T17:23:20;26.30;66.20
24087;DHT22;22893;50.572;7.234;2022-07-24T17:25:48;26.30;66.00
24087;DHT22;22893;50.572;7.234;2022-07-24T17:28:16;26.30;65.90
24087;DHT22;22893;50.572;7.234;2022-07-24T17:30:44;26.30;66.10
24087;DHT22;22893;50.572;7.234;2022-07-24T17:33:13;26.30;66.00
24087;DHT22;22893;50.572;7.234;2022-07-24T17:35:42;26.30;66.00
24087;DHT22;22893;50.572;7.234;2022-07-24T17:38:10;26.40;66.10
24087;DHT22;22893;50.572;7.234;2022-07-24T17:40:38;26.30;66.20
24087;DHT22;22893;50.572;7.234;2022-07-24T17:43:05;26.40;66.10
24087;DHT22;22893;50.572;7.234;2022-07-24T17:45:33;26.40;66.20
24087;DHT22;22893;50.572;7.234;2022-07-24T17:48:00;26.40;66.30
24087;DHT22;22893;50.572;7.234;2022-07-24T17:50:28;26.40;66.10
24087;DHT22;22893;50.572;7.234;2022-07-24T17:52:56;26.40;66.30
24087;DHT22;22893;50.572;7.234;2022-07-24T17:55:23;26.40;66.30
24087;DHT22;22893;50.572;7.234;2022-07-24T17:57:51;26.50;66.20
24087;DHT22;22893;50.572;7.234;2022-07-24T18:00:19;26.50;66.40
24087;DHT22;22893;50.572;7.234;2022-07-24T18:02:47;26.50;66.90
24087;DHT22;22893;50.572;7.234;2022-07-24T18:05:15;26.50;66.50
24087;DHT22;22893;50.572;7.234;2022-07-24T18:07:43;26.50;66.50
24087;DHT22;22893;50.572;7.234;2022-07-24T18:10:12;26.50;67.40
24087;DHT22;22893;50.572;7.234;2022-07-24T18:12:42;26.50;66.70
24087;DHT22;22893;50.572;7.234;2022-07-24T18:15:10;26.50;67.10
24087;DHT22;22893;50.572;7.234;2022-07-24T18:17:38;26.50;67.10
24087;DHT22;22893;50.572;7.234;2022-07-24T18:20:07;26.50;67.40
24087;DHT22;22893;50.572;7.234;2022-07-24T18:22:34;26.50;67.40
24087;DHT22;22893;50.572;7.234;2022-07-24T18:25:02;26.50;67.50
24087;DHT22;22893;50.572;7.234;2022-07-24T18:27:30;26.50;67.70
24087;DHT22;22893;50.572;7.234;2022-07-24T18:29:58;26.50;67.60
24087;DHT22;22893;50.572;7.234;2022-07-24T18:32:25;26.50;67.70
24087;DHT22;22893;50.572;7.234;2022-07-24T18:34:53;26.50;67.70
24087;DHT22;22893;50.572;7.234;2022-07-24T18:37:20;26.50;67.80
24087;DHT22;22893;50.572;7.234;2022-07-24T18:39:48;26.50;67.70
24087;DHT22;22893;50.572;7.234;2022-07-24T18:42:16;26.50;67.80
24087;DHT22;22893;50.572;7.234;2022-07-24T18:44:43;26.50;67.90
24087;DHT22;22893;50.572;7.234;2022-07-24T18:47:14;26.50;68.10
24087;DHT22;22893;50.572;7.234;2022-07-24T18:49:43;26.50;68.00
24087;DHT22;22893;50.572;7.234;2022-07-24T18:52:11;26.50;68.20
24087;DHT22;22893;50.572;7.234;2022-07-24T18:54:39;26.50;68.10
24087;DHT22;22893;50.572;7.234;2022-07-24T18:57:07;26.60;69.20
24087;DHT22;22893;50.572;7.234;2022-07-24T18:59:35;26.50;68.20
24087;DHT22;22893;50.572;7.234;2022-07-24T19:02:02;26.50;68.20
24087;DHT22;22893;50.572;7.234;2022-07-24T19:04:30;26.50;68.30
24087;DHT22;22893;50.572;7.234;2022-07-24T19:06:57;26.50;68.30
24087;DHT22;22893;50.572;7.234;2022-07-24T19:09:25;26.50;69.30
24087;DHT22;22893;50.572;7.234;2022-07-24T19:11:52;26.50;68.50
24087;DHT22;22893;50.572;7.234;2022-07-24T19:14:20;26.50;68.50
24087;DHT22;22893;50.572;7.234;2022-07-24T19:16:48;26.50;68.50
24087;DHT22;22893;50.572;7.234;2022-07-24T19:19:15;26.50;68.50
24087;DHT22;22893;50.572;7.234;2022-07-24T19:21:43;26.50;68.60
24087;DHT22;22893;50.572;7.234;2022-07-24T19:24:11;26.50;68.60
24087;DHT22;22893;50.572;7.234;2022-07-24T19:26:38;26.50;68.70
24087;DHT22;22893;50.572;7.234;2022-07-24T19:29:06;26.50;68.70
24087;DHT22;22893;50.572;7.234;2022-07-24T19:31:34;26.50;68.70
24087;DHT22;22893;50.572;7.234;2022-07-24T19:34:01;26.60;68.80
24087;DHT22;22893;50.572;7.234;2022-07-24T19:36:29;26.50;68.80
24087;DHT22;22893;50.572;7.234;2022-07-24T19:38:59;26.50;68.80
24087;DHT22;22893;50.572;7.234;2022-07-24T19:41:27;26.50;69.00
24087;DHT22;22893;50.572;7.234;2022-07-24T19:43:55;26.60;69.00
24087;DHT22;22893;50.572;7.234;2022-07-24T19:46:23;26.50;69.00
24087;DHT22;22893;50.572;7.234;2022-07-24T19:48:50;26.60;69.00
24087;DHT22;22893;50.572;7.234;2022-07-24T19:51:18;26.50;69.00
24087;DHT22;22893;50.572;7.234;2022-07-24T19:53:46;26.50;69.00
24087;DHT22;22893;50.572;7.234;2022-07-24T19:56:13;26.60;69.20
24087;DHT22;22893;50.572;7.234;2022-07-24T19:58:41;26.60;69.20
24087;DHT22;22893;50.572;7.234;2022-07-24T20:01:08;26.60;69.30
24087;DHT22;22893;50.572;7.234;2022-07-24T20:03:36;26.60;69.30
24087;DHT22;22893;50.572;7.234;2022-07-24T20:06:04;26.50;69.30
24087;DHT22;22893;50.572;7.234;2022-07-24T20:08:32;26.60;69.40
24087;DHT22;22893;50.572;7.234;2022-07-24T20:10:59;26.60;69.40
24087;DHT22;22893;50.572;7.234;2022-07-24T20:13:27;26.50;69.50
24087;DHT22;22893;50.572;7.234;2022-07-24T20:15:55;26.60;69.50
24087;DHT22;22893;50.572;7.234;2022-07-24T20:18:23;26.50;69.50
24087;DHT22;22893;50.572;7.234;2022-07-24T20:20:50;26.50;69.50
24087;DHT22;22893;50.572;7.234;2022-07-24T20:23:18;26.50;69.50
24087;DHT22;22893;50.572;7.234;2022-07-24T20:25:45;26.50;69.50
24087;DHT22;22893;50.572;7.234;2022-07-24T20:28:13;26.50;69.60
24087;DHT22;22893;50.572;7.234;2022-07-24T20:30:41;26.60;69.70
24087;DHT22;22893;50.572;7.234;2022-07-24T20:33:08;26.60;69.80
24087;DHT22;22893;50.572;7.234;2022-07-24T20:35:36;26.60;69.90
24087;DHT22;22893;50.572;7.234;2022-07-24T20:38:03;26.60;69.90
24087;DHT22;22893;50.572;7.234;2022-07-24T20:40:31;26.60;69.90
24087;DHT22;22893;50.572;7.234;2022-07-24T20:42:58;26.60;69.90
24087;DHT22;22893;50.572;7.234;2022-07-24T20:45:26;26.60;69.90
24087;DHT22;22893;50.572;7.234;2022-07-24T20:47:54;26.60;69.90
24087;DHT22;22893;50.572;7.234;2022-07-24T20:50:21;26.60;70.10
24087;DHT22;22893;50.572;7.234;2022-07-24T20:52:49;26.60;70.10
24087;DHT22;22893;50.572;7.234;2022-07-24T20:55:16;26.60;70.10
24087;DHT22;22893;50.572;7.234;2022-07-24T20:57:44;26.60;70.10
24087;DHT22;22893;50.572;7.234;2022-07-24T21:00:12;26.60;70.30
24087;DHT22;22893;50.572;7.234;2022-07-24T21:02:39;26.60;70.30
24087;DHT22;22893;50.572;7.234;2022-07-24T21:05:07;26.60;70.20
24087;DHT22;22893;50.572;7.234;2022-07-24T21:07:35;26.60;70.30
24087;DHT22;22893;50.572;7.234;2022-07-24T21:10:03;26.60;70.40
24087;DHT22;22893;50.572;7.234;2022-07-24T21:12:31;26.60;70.40
24087;DHT22;22893;50.572;7.234;2022-07-24T21:14:58;26.60;70.40
24087;DHT22;22893;50.572;7.234;2022-07-24T21:17:26;26.60;70.40
24087;DHT22;22893;50.572;7.234;2022-07-24T21:19:53;26.60;70.40
24087;DHT22;22893;50.572;7.234;2022-07-24T21:22:21;26.60;70.50
24087;DHT22;22893;50.572;7.234;2022-07-24T21:24:48;26.60;70.50
24087;DHT22;22893;50.572;7.234;2022-07-24T21:27:16;26.60;70.60
24087;DHT22;22893;50.572;7.234;2022-07-24T21:29:44;26.60;70.60
24087;DHT22;22893;50.572;7.234;2022-07-24T21:32:11;26.60;70.60
24087;DHT22;22893;50.572;7.234;2022-07-24T21:34:39;26.60;70.60
24087;DHT22;22893;50.572;7.234;2022-07-24T21:37:06;26.60;71.40
24087;DHT22;22893;50.572;7.234;2022-07-24T21:39:34;26.50;71.50
24087;DHT22;22893;50.572;7.234;2022-07-24T21:42:02;26.50;72.40
24087;DHT22;22893;50.572;7.234;2022-07-24T21:44:29;26.40;73.50
24087;DHT22;22893;50.572;7.234;2022-07-24T21:46:57;26.30;74.30
24087;DHT22;22893;50.572;7.234;2022-07-24T21:49:24;26.30;74.50
24087;DHT22;22893;50.572;7.234;2022-07-24T21:51:52;26.30;74.80
24087;DHT22;22893;50.572;7.234;2022-07-24T21:54:19;26.30;75.40
24087;DHT22;22893;50.572;7.234;2022-07-24T21:56:47;26.20;75.80
24087;DHT22;22893;50.572;7.234;2022-07-24T21:59:15;26.10;76.00
24087;DHT22;22893;50.572;7.234;2022-07-24T22:01:42;26.10;76.40
24087;DHT22;22893;50.572;7.234;2022-07-24T22:04:10;26.00;77.20
24087;DHT22;22893;50.572;7.234;2022-07-24T22:06:37;26.00;77.50
24087;DHT22;22893;50.572;7.234;2022-07-24T22:09:06;25.90;77.70
24087;DHT22;22893;50.572;7.234;2022-07-24T22:11:34;25.90;78.10
24087;DHT22;22893;50.572;7.234;2022-07-24T22:14:01;25.80;78.60
24087;DHT22;22893;50.572;7.234;2022-07-24T22:16:29;25.80;78.90
24087;DHT22;22893;50.572;7.234;2022-07-24T22:18:56;25.80;79.00
24087;DHT22;22893;50.572;7.234;2022-07-24T22:21:24;25.70;80.20
24087;DHT22;22893;50.572;7.234;2022-07-24T22:23:51;25.70;80.70
24087;DHT22;22893;50.572;7.234;2022-07-24T22:26:19;25.70;80.40
24087;DHT22;22893;50.572;7.234;2022-07-24T22:28:46;25.60;80.80
24087;DHT22;22893;50.572;7.234;2022-07-24T22:31:14;25.60;80.90
24087;DHT22;22893;50.572;7.234;2022-07-24T22:33:42;25.60;81.10
24087;DHT22;22893;50.572;7.234;2022-07-24T22:36:11;25.60;80.90
24087;DHT22;22893;50.572;7.234;2022-07-24T22:38:40;25.50;80.70
24087;DHT22;22893;50.572;7.234;2022-07-24T22:41:08;25.50;80.90
24087;DHT22;22893;50.572;7.234;2022-07-24T22:43:36;25.50;81.20
24087;DHT22;22893;50.572;7.234;2022-07-24T22:46:05;25.40;81.60
24087;DHT22;22893;50.572;7.234;2022-07-24T22:48:33;25.40;81.30
24087;DHT22;22893;50.572;7.234;2022-07-24T22:51:01;25.40;81.60
24087;DHT22;22893;50.572;7.234;2022-07-24T22:53:29;25.30;81.80
24087;DHT22;22893;50.572;7.234;2022-07-24T22:55:57;25.30;82.00
24087;DHT22;22893;50.572;7.234;2022-07-24T22:58:25;25.30;81.80
24087;DHT22;22893;50.572;7.234;2022-07-24T23:00:53;25.30;82.00
24087;DHT22;22893;50.572;7.234;2022-07-24T23:03:21;25.20;82.20
24087;DHT22;22893;50.572;7.234;2022-07-24T23:05:48;25.20;82.60
24087;DHT22;22893;50.572;7.234;2022-07-24T23:08:16;25.10;82.40
24087;DHT22;22893;50.572;7.234;2022-07-24T23:10:43;25.10;82.40
24087;DHT22;22893;50.572;7.234;2022-07-24T23:13:11;25.10;82.40
24087;DHT22;22893;50.572;7.234;2022-07-24T23:15:38;25.10;82.70
24087;DHT22;22893;50.572;7.234;2022-07-24T23:18:06;25.10;82.40
24087;DHT22;22893;50.572;7.234;2022-07-24T23:20:33;25.10;82.90
24087;DHT22;22893;50.572;7.234;2022-07-24T23:23:16;25.00;81.50
24087;DHT22;22893;50.572;7.234;2022-07-24T23:25:48;25.10;82.00
24087;DHT22;22893;50.572;7.234;2022-07-24T23:28:16;25.00;81.70
24087;DHT22;22893;50.572;7.234;2022-07-24T23:30:43;25.00;81.60
24087;DHT22;22893;50.572;7.234;2022-07-24T23:33:11;25.00;81.30
24087;DHT22;22893;50.572;7.234;2022-07-24T23:35:38;24.90;80.90
24087;DHT22;22893;50.572;7.234;2022-07-24T23:38:06;24.90;80.80
24087;DHT22;22893;50.572;7.234;2022-07-24T23:40:33;24.90;80.90
24087;DHT22;22893;50.572;7.234;2022-07-24T23:43:01;24.90;81.20
24087;DHT22;22893;50.572;7.234;2022-07-24T23:45:29;24.90;81.60
24087;DHT22;22893;50.572;7.234;2022-07-24T23:47:56;24.90;81.40
24087;DHT22;22893;50.572;7.234;2022-07-24T23:50:24;24.80;81.80
24087;DHT22;22893;50.572;7.234;2022-07-24T23:52:51;24.90;82.00
24087;DHT22;22893;50.572;7.234;2022-07-24T23:55:19;24.80;82.60
24087;DHT22;22893;50.572;7.234;2022-07-24T23:57:46;24.80;82.80
